createdAt,value
2019-01-21T00:00:39.340Z,37.90
2019-01-21T00:03:14.507Z,38.23
2019-01-21T00:05:38.397Z,36.03
2019-01-21T00:08:06.874Z,38.83
2019-01-21T00:10:35.296Z,38.90
2019-01-21T00:13:04.180Z,38.47
2019-01-21T00:15:32.622Z,38.83
2019-01-21T00:18:01.158Z,38.83
2019-01-21T00:20:29.580Z,39.33
2019-01-21T00:22:58.063Z,39.63
2019-01-21T00:25:26.467Z,38.17
2019-01-21T00:27:54.885Z,39.83
2019-01-21T00:30:23.760Z,38.53
2019-01-21T00:32:52.199Z,37.37
2019-01-21T00:35:20.612Z,38.73
2019-01-21T00:37:49.040Z,38.03
2019-01-21T00:40:18.085Z,36.77
2019-01-21T00:42:46.553Z,39.53
2019-01-21T00:45:15.240Z,38.33
2019-01-21T00:47:43.743Z,39.67
2019-01-21T00:50:13.410Z,37.83
2019-01-21T00:52:41.895Z,38.67
2019-01-21T00:55:11.960Z,38.43
2019-01-21T00:57:40.363Z,39.37
2019-01-21T01:00:11.868Z,39.30
2019-01-21T01:02:40.275Z,38.33
2019-01-21T01:05:09.640Z,38.33
2019-01-21T01:07:39.190Z,38.13
2019-01-21T01:10:10.254Z,36.97
2019-01-21T01:12:38.674Z,38.33
2019-01-21T01:15:09.533Z,39.47
2019-01-21T01:17:38.016Z,37.67
2019-01-21T01:20:09.856Z,38.77
2019-01-21T01:22:38.276Z,39.10
2019-01-21T01:25:07.438Z,39.30
2019-01-21T01:27:35.873Z,37.27
2019-01-21T01:30:07.133Z,37.63
2019-01-21T01:32:35.616Z,37.73
2019-01-21T01:35:05.973Z,36.90
2019-01-21T01:37:34.389Z,39.13
2019-01-21T01:40:02.965Z,40.90
2019-01-21T01:42:31.456Z,38.27
2019-01-21T01:44:59.937Z,39.47
2019-01-21T01:47:28.364Z,39.10
2019-01-21T01:49:56.776Z,39.33
2019-01-21T01:52:25.463Z,38.80
2019-01-21T01:54:53.892Z,39.07
2019-01-21T01:57:22.299Z,37.93
2019-01-21T01:59:50.803Z,37.93
2019-01-21T02:02:19.202Z,39.17
2019-01-21T02:04:47.903Z,40.40
2019-01-21T02:07:16.384Z,40.07
2019-01-21T02:09:44.804Z,40.80
2019-01-21T02:12:13.216Z,39.73
2019-01-21T02:14:41.644Z,39.40
2019-01-21T02:17:10.066Z,40.10
2019-01-21T02:19:39.908Z,40.20
2019-01-21T02:22:08.971Z,38.73
2019-01-21T02:24:39.179Z,38.00
2019-01-21T02:27:08.729Z,38.17
2019-01-21T02:30:02.705Z,39.40
2019-01-21T02:33:05.764Z,40.13
2019-01-21T02:35:37.254Z,39.00
2019-01-21T02:38:11.416Z,38.73
2019-01-21T02:41:00.876Z,37.77
2019-01-21T02:43:44.051Z,39.63
2019-01-21T02:46:15.541Z,38.73
2019-01-21T02:48:49.961Z,40.03
2019-01-21T02:51:30.235Z,41.23
2019-01-21T02:54:01.746Z,38.70
2019-01-21T02:56:36.175Z,40.13
2019-01-21T02:59:13.744Z,40.83
2019-01-21T03:01:59.439Z,40.17
2019-01-21T03:04:59.496Z,39.63
2019-01-21T03:07:39.893Z,39.87
2019-01-21T03:10:11.393Z,38.13
2019-01-21T03:12:57.899Z,40.17
2019-01-21T03:15:38.032Z,41.27
2019-01-21T03:18:09.536Z,40.10
2019-01-21T03:21:08.036Z,37.83
2019-01-21T03:24:00.506Z,38.13
2019-01-21T03:26:55.542Z,39.83
2019-01-21T03:29:35.728Z,39.27
2019-01-21T03:32:22.164Z,39.23
2019-01-21T03:34:59.663Z,37.43
2019-01-21T03:37:31.161Z,37.57
2019-01-21T03:40:19.180Z,37.70
2019-01-21T03:42:59.325Z,39.20
2019-01-21T03:45:39.445Z,39.20
2019-01-21T03:48:16.949Z,37.50
2019-01-21T03:51:04.752Z,39.13
2019-01-21T03:53:39.223Z,38.57
2019-01-21T03:56:09.514Z,38.60
2019-01-21T03:58:50.082Z,38.80
2019-01-21T04:01:42.630Z,38.23
2019-01-21T04:04:32.227Z,38.13
2019-01-21T04:07:03.784Z,38.33
2019-01-21T04:09:52.975Z,39.30
2019-01-21T04:12:33.244Z,38.67
2019-01-21T04:15:21.900Z,39.67
2019-01-21T04:18:09.590Z,38.03
2019-01-21T04:21:01.831Z,38.57
2019-01-21T04:23:51.240Z,38.53
2019-01-21T04:26:22.738Z,37.57
2019-01-21T04:29:00.175Z,38.80
2019-01-21T04:31:51.040Z,38.30
2019-01-21T04:34:28.464Z,38.60
2019-01-21T04:37:08.966Z,39.77
2019-01-21T04:39:52.281Z,39.93
2019-01-21T04:42:54.020Z,36.53
2019-01-21T04:45:34.488Z,37.43
2019-01-21T04:48:08.655Z,38.40
2019-01-21T04:50:51.842Z,39.73
2019-01-21T04:53:34.953Z,39.23
2019-01-21T04:56:25.649Z,41.37
2019-01-21T04:59:22.458Z,40.00
2019-01-21T05:02:20.640Z,39.33
2019-01-21T05:04:52.143Z,38.83
2019-01-21T05:07:53.570Z,39.40
2019-01-21T05:10:30.562Z,39.50
2019-01-21T05:13:14.096Z,40.53
2019-01-21T05:16:00.513Z,39.23
2019-01-21T05:18:41.179Z,42.10
2019-01-21T05:21:23.948Z,39.73
2019-01-21T05:24:04.535Z,40.17
2019-01-21T05:26:53.900Z,41.13
2019-01-21T05:29:31.258Z,40.47
2019-01-21T05:32:02.755Z,39.43
2019-01-21T05:34:52.609Z,39.07
2019-01-21T05:37:35.975Z,39.03
2019-01-21T05:40:31.408Z,39.07
2019-01-21T05:43:28.021Z,39.27
2019-01-21T05:46:23.271Z,38.10
2019-01-21T05:49:28.523Z,39.03
2019-01-21T05:52:22.584Z,37.63
2019-01-21T05:55:15.266Z,39.93
2019-01-21T05:58:00.979Z,38.97
2019-01-21T06:00:54.666Z,41.10
2019-01-21T06:03:34.972Z,40.20
2019-01-21T06:06:21.267Z,38.03
2019-01-21T06:09:01.269Z,38.90
2019-01-21T06:11:41.697Z,38.90
2019-01-21T06:14:18.872Z,40.10
2019-01-21T06:16:53.129Z,39.90
2019-01-21T06:19:27.348Z,38.93
2019-01-21T06:22:16.700Z,41.07
2019-01-21T06:24:48.190Z,39.43
2019-01-21T06:27:43.581Z,38.70
2019-01-21T06:30:33.144Z,38.83
2019-01-21T06:33:25.259Z,37.73
2019-01-21T06:36:02.249Z,37.23
2019-01-21T06:38:45.339Z,39.97
2019-01-21T06:41:32.793Z,38.63
2019-01-21T06:44:07.098Z,40.07
2019-01-21T06:47:05.333Z,38.63
2019-01-21T06:50:06.093Z,39.07
2019-01-21T06:52:49.179Z,39.63
2019-01-21T06:55:26.677Z,39.40
2019-01-21T06:58:07.019Z,39.20
2019-01-21T07:00:57.877Z,38.57
2019-01-21T07:03:32.037Z,37.33
2019-01-21T07:06:20.044Z,39.23
2019-01-21T07:09:00.384Z,39.83
2019-01-21T07:11:40.641Z,37.90
2019-01-21T07:14:32.815Z,37.73
2019-01-21T07:17:04.485Z,37.53
2019-01-21T07:19:38.491Z,40.70
2019-01-21T07:22:30.775Z,40.60
2019-01-21T07:25:02.268Z,39.03
2019-01-21T07:27:57.562Z,39.97
2019-01-21T07:30:40.745Z,39.27
2019-01-21T07:33:30.120Z,38.30
2019-01-21T07:36:13.292Z,38.67
2019-01-21T07:38:44.789Z,38.03
2019-01-21T07:41:18.859Z,39.13
2019-01-21T07:43:59.023Z,40.43
2019-01-21T07:46:36.131Z,40.83
2019-01-21T07:49:07.626Z,39.33
2019-01-21T07:51:44.868Z,40.27
2019-01-21T07:54:21.881Z,39.77
2019-01-21T07:57:11.412Z,38.10
2019-01-21T07:59:45.829Z,40.67
2019-01-21T08:02:39.709Z,38.93
2019-01-21T08:05:13.700Z,38.70
2019-01-21T08:07:53.793Z,39.07
2019-01-21T08:10:28.212Z,37.97
2019-01-21T08:13:11.423Z,39.33
2019-01-21T08:15:54.502Z,38.60
2019-01-21T08:18:31.940Z,39.70
2019-01-21T08:21:08.979Z,40.37
2019-01-21T08:23:46.152Z,38.40
2019-01-21T08:26:20.440Z,38.10
2019-01-21T08:28:54.880Z,38.33
2019-01-21T08:31:38.236Z,38.87
2019-01-21T08:34:30.428Z,39.80
2019-01-21T08:37:16.812Z,38.77
2019-01-21T08:40:00.188Z,41.03
2019-01-21T08:43:04.408Z,39.90
2019-01-21T08:45:38.677Z,40.57
2019-01-21T08:48:42.981Z,40.33
2019-01-21T08:51:34.055Z,39.13
2019-01-21T08:54:14.452Z,39.07
2019-01-21T08:56:54.623Z,40.07
2019-01-21T08:59:26.122Z,39.17
2019-01-21T09:02:00.274Z,38.97
2019-01-21T09:04:40.212Z,40.77
2019-01-21T09:07:17.227Z,39.57
2019-01-21T09:09:48.732Z,38.87
2019-01-21T09:12:31.985Z,40.23
2019-01-21T09:15:22.912Z,39.33
2019-01-21T09:18:12.303Z,39.80
2019-01-21T09:21:06.117Z,41.27
2019-01-21T09:23:43.309Z,39.23
2019-01-21T09:26:25.905Z,39.87
2019-01-21T09:29:03.259Z,39.70
2019-01-21T09:31:49.840Z,40.80
2019-01-21T09:34:36.367Z,39.60
2019-01-21T09:37:25.035Z,39.83
2019-01-21T09:40:08.120Z,38.97
2019-01-21T09:42:51.528Z,39.97
2019-01-21T09:45:37.861Z,41.57
2019-01-21T09:48:05.213Z,38.87
2019-01-21T09:50:34.700Z,39.53
2019-01-21T09:53:04.659Z,40.43
2019-01-21T09:55:33.904Z,40.07
2019-01-21T09:58:07.527Z,39.17
2019-01-21T10:00:36.101Z,39.50
2019-01-21T10:03:05.222Z,37.77
2019-01-21T10:05:35.383Z,39.80
2019-01-21T10:08:06.878Z,38.53
2019-01-21T10:10:56.348Z,36.10
2019-01-21T10:13:39.019Z,39.47
2019-01-21T10:16:41.966Z,37.43
2019-01-21T10:19:31.508Z,38.53
2019-01-21T10:22:11.657Z,36.77
2019-01-21T10:25:07.163Z,38.77
2019-01-21T10:27:44.208Z,38.07
2019-01-21T10:30:27.486Z,37.70
2019-01-21T10:33:16.588Z,38.10
2019-01-21T10:36:15.034Z,38.10
2019-01-21T10:39:06.014Z,38.50
2019-01-21T10:41:46.091Z,38.50
2019-01-21T10:44:20.368Z,37.30
2019-01-21T10:47:03.908Z,36.57
2019-01-21T10:49:44.224Z,39.70
2019-01-21T10:52:50.316Z,38.63
2019-01-21T10:55:27.467Z,39.43
2019-01-21T10:58:15.043Z,38.77
2019-01-21T11:01:17.799Z,38.20
2019-01-21T11:03:49.280Z,38.23
2019-01-21T11:06:20.772Z,38.83
2019-01-21T11:09:05.880Z,38.43
2019-01-21T11:11:54.105Z,38.93
2019-01-21T11:14:47.312Z,38.43
2019-01-21T11:17:21.579Z,38.87
2019-01-21T11:20:25.943Z,38.87
2019-01-21T11:23:13.820Z,37.97
2019-01-21T11:26:01.429Z,36.93
2019-01-21T11:28:35.675Z,35.80
2019-01-21T11:31:13.172Z,37.07
2019-01-21T11:34:01.424Z,36.73
2019-01-21T11:36:38.891Z,36.03
2019-01-21T11:39:26.544Z,36.80
2019-01-21T11:42:06.787Z,36.37
2019-01-21T11:44:41.254Z,36.03
2019-01-21T11:47:24.117Z,36.13
2019-01-21T11:49:55.620Z,37.50
2019-01-21T11:52:27.124Z,37.70
2019-01-21T11:55:25.420Z,36.23
2019-01-21T11:58:02.934Z,37.17
2019-01-21T12:00:42.971Z,35.00
2019-01-21T12:03:23.594Z,36.97
2019-01-21T12:05:52.831Z,37.00
2019-01-21T12:08:27.135Z,37.43
2019-01-21T12:10:58.612Z,37.33
2019-01-21T12:13:39.117Z,38.47
2019-01-21T12:16:35.921Z,40.03
2019-01-21T12:19:07.419Z,39.27
2019-01-21T12:21:55.188Z,37.60
2019-01-21T12:24:23.744Z,37.73
2019-01-21T12:27:07.195Z,38.87
2019-01-21T12:29:38.702Z,37.70
2019-01-21T12:32:28.348Z,39.63
2019-01-21T12:35:11.465Z,38.97
2019-01-21T12:37:57.847Z,37.77
2019-01-21T12:40:38.084Z,37.80
2019-01-21T12:43:09.591Z,36.30
2019-01-21T12:45:43.805Z,35.43
2019-01-21T12:48:18.088Z,37.13
2019-01-21T12:51:07.384Z,36.77
2019-01-21T12:53:53.645Z,36.17
2019-01-21T12:56:36.900Z,36.87
2019-01-21T12:59:17.048Z,36.20
2019-01-21T13:01:53.783Z,34.97
2019-01-21T13:04:25.275Z,37.43
2019-01-21T13:07:05.513Z,36.37
2019-01-21T13:09:48.947Z,34.97
2019-01-21T13:12:35.395Z,36.43
2019-01-21T13:15:33.627Z,35.37
2019-01-21T13:18:19.747Z,35.37
2019-01-21T13:21:21.079Z,35.07
2019-01-21T13:23:55.675Z,35.77
2019-01-21T13:26:32.936Z,36.57
2019-01-21T13:29:10.354Z,35.33
2019-01-21T13:31:47.673Z,34.33
2019-01-21T13:34:25.144Z,36.70
2019-01-21T13:37:31.434Z,34.93
2019-01-21T13:40:19.196Z,35.30
2019-01-21T13:43:13.189Z,35.30
2019-01-21T13:46:07.203Z,34.37
2019-01-21T13:48:41.700Z,35.67
2019-01-21T13:51:15.893Z,34.83
2019-01-21T13:53:59.275Z,36.07
2019-01-21T13:56:48.695Z,33.80
2019-01-21T13:59:34.924Z,34.47
2019-01-21T14:02:08.835Z,34.40
2019-01-21T14:05:08.439Z,33.83
2019-01-21T14:07:57.815Z,35.10
2019-01-21T14:10:38.344Z,35.03
2019-01-21T14:13:26.379Z,33.83
2019-01-21T14:16:12.632Z,33.27
2019-01-21T14:19:04.889Z,34.07
2019-01-21T14:22:03.291Z,34.37
2019-01-21T14:25:07.732Z,33.10
2019-01-21T14:27:42.184Z,33.67
2019-01-21T14:30:19.368Z,33.30
2019-01-21T14:32:50.871Z,34.67
2019-01-21T14:35:22.370Z,30.97
2019-01-21T14:38:05.456Z,33.63
2019-01-21T14:40:51.544Z,34.50
2019-01-21T14:43:25.740Z,34.50
2019-01-21T14:46:14.952Z,32.67
2019-01-21T14:48:55.038Z,33.03
2019-01-21T14:51:41.165Z,33.60
2019-01-21T14:54:23.841Z,33.63
2019-01-21T14:57:29.964Z,33.67
2019-01-21T15:00:25.342Z,31.70
2019-01-21T15:03:06.168Z,32.53
2019-01-21T15:05:34.972Z,32.27
2019-01-21T15:08:09.732Z,32.27
2019-01-21T15:11:00.626Z,31.60
2019-01-21T15:13:46.993Z,33.03
2019-01-21T15:16:29.711Z,32.30
2019-01-21T15:19:03.928Z,33.63
2019-01-21T15:21:35.437Z,32.87
2019-01-21T15:24:07.041Z,34.33
2019-01-21T15:26:38.564Z,32.33
2019-01-21T15:29:26.584Z,33.47
2019-01-21T15:32:19.201Z,36.17
2019-01-21T15:35:14.744Z,33.87
2019-01-21T15:37:49.353Z,32.57
2019-01-21T15:40:53.513Z,33.07
2019-01-21T15:43:42.856Z,32.53
2019-01-21T15:46:20.377Z,34.43
2019-01-21T15:49:00.956Z,32.87
2019-01-21T15:51:54.986Z,32.97
2019-01-21T15:54:44.352Z,33.17
2019-01-21T15:57:24.365Z,32.83
2019-01-21T16:00:19.417Z,33.07
2019-01-21T16:03:05.694Z,32.60
2019-01-21T16:05:37.196Z,33.40
2019-01-21T16:08:08.684Z,32.97
2019-01-21T16:10:55.157Z,33.77
2019-01-21T16:13:29.233Z,32.40
2019-01-21T16:16:00.720Z,32.53
2019-01-21T16:18:43.856Z,31.37
2019-01-21T16:21:15.348Z,32.80
2019-01-21T16:24:18.467Z,32.97
2019-01-21T16:26:52.621Z,32.43
2019-01-21T16:29:39.014Z,31.83
2019-01-21T16:32:08.278Z,33.10
2019-01-21T16:34:51.579Z,34.23
2019-01-21T16:37:25.768Z,32.93
2019-01-21T16:40:22.531Z,32.03
2019-01-21T16:42:51.169Z,32.43
2019-01-21T16:45:19.625Z,34.07
2019-01-21T16:47:48.044Z,33.70
2019-01-21T16:50:16.709Z,32.13
2019-01-21T16:52:45.143Z,33.07
2019-01-21T16:55:13.635Z,34.30
2019-01-21T16:57:42.049Z,32.53
2019-01-21T17:00:13.399Z,34.63
2019-01-21T17:02:41.807Z,35.60
2019-01-21T17:05:12.273Z,34.67
2019-01-21T17:07:40.680Z,34.73
2019-01-21T17:10:11.338Z,33.83
2019-01-21T17:12:39.817Z,32.07
2019-01-21T17:15:11.042Z,31.90
2019-01-21T17:17:39.597Z,32.23
2019-01-21T17:20:13.908Z,32.63
2019-01-21T17:22:42.401Z,32.43
2019-01-21T17:25:11.053Z,32.33
2019-01-21T17:27:39.535Z,32.63
2019-01-21T17:30:14.381Z,34.10
2019-01-21T17:32:42.865Z,32.50
2019-01-21T17:35:13.007Z,34.77
2019-01-21T17:37:41.501Z,39.50
2019-01-21T17:40:13.221Z,36.57
2019-01-21T17:42:41.636Z,34.13
2019-01-21T17:45:13.089Z,35.47
2019-01-21T17:47:41.584Z,32.47
2019-01-21T17:50:12.335Z,33.40
2019-01-21T17:52:40.761Z,32.30
2019-01-21T17:55:09.925Z,31.93
2019-01-21T17:57:38.408Z,32.37
2019-01-21T18:00:10.074Z,34.00
2019-01-21T18:02:38.485Z,32.73
2019-01-21T18:05:07.437Z,33.03
2019-01-21T18:07:35.844Z,33.07
2019-01-21T18:10:06.863Z,34.07
2019-01-21T18:12:35.284Z,32.67
2019-01-21T18:15:05.548Z,32.50
2019-01-21T18:17:33.969Z,32.93
2019-01-21T18:20:02.380Z,33.53
2019-01-21T18:22:32.524Z,32.67
2019-01-21T18:25:03.203Z,33.10
2019-01-21T18:27:31.080Z,33.73
2019-01-21T18:29:59.499Z,33.53
2019-01-21T18:32:27.913Z,33.80
2019-01-21T18:34:56.345Z,33.87
2019-01-21T18:37:24.756Z,32.90
2019-01-21T18:39:54.043Z,34.17
2019-01-21T18:42:22.456Z,33.33
2019-01-21T18:44:50.874Z,32.77
2019-01-21T18:47:19.287Z,33.33
2019-01-21T18:49:47.707Z,33.67
2019-01-21T18:52:16.114Z,33.97
2019-01-21T18:54:44.544Z,34.73
2019-01-21T18:57:12.964Z,34.67
2019-01-21T18:59:41.371Z,34.90
2019-01-21T19:02:09.800Z,33.87
2019-01-21T19:04:38.217Z,33.90
2019-01-21T19:07:06.632Z,33.27
2019-01-21T19:09:38.426Z,35.67
2019-01-21T19:12:06.871Z,35.23
2019-01-21T19:14:35.283Z,34.43
2019-01-21T19:17:03.791Z,35.07
2019-01-21T19:19:35.204Z,34.67
2019-01-21T19:22:03.837Z,34.63
2019-01-21T19:24:32.246Z,34.80
2019-01-21T19:27:00.668Z,34.27
2019-01-21T19:29:29.089Z,35.90
2019-01-21T19:31:57.567Z,35.57
2019-01-21T19:34:26.017Z,36.87
2019-01-21T19:36:54.656Z,35.27
2019-01-21T19:39:23.084Z,34.43
2019-01-21T19:41:51.496Z,34.97
2019-01-21T19:44:25.555Z,36.27
2019-01-21T19:46:57.045Z,37.30
2019-01-21T19:49:25.475Z,35.73
2019-01-21T19:52:00.159Z,35.30
2019-01-21T19:54:24.048Z,35.73
2019-01-21T19:56:52.451Z,34.90
2019-01-21T19:59:20.877Z,36.00
2019-01-21T20:01:49.300Z,34.80
2019-01-21T20:04:17.727Z,34.63
2019-01-21T20:06:46.186Z,35.10
2019-01-21T20:09:14.596Z,37.03
2019-01-21T20:11:43.013Z,32.90
2019-01-21T20:14:11.428Z,35.10
2019-01-21T20:16:39.851Z,36.77
2019-01-21T20:19:08.332Z,35.53
2019-01-21T20:21:36.795Z,35.40
2019-01-21T20:24:05.319Z,35.97
2019-01-21T20:26:33.737Z,35.37
2019-01-21T20:29:02.155Z,37.77
2019-01-21T20:31:30.576Z,37.70
2019-01-21T20:33:58.996Z,38.33
2019-01-21T20:36:27.411Z,37.53
2019-01-21T20:38:55.838Z,36.97
2019-01-21T20:41:24.256Z,39.00
2019-01-21T20:43:52.684Z,37.80
2019-01-21T20:46:21.091Z,37.40
2019-01-21T20:48:49.521Z,38.73
2019-01-21T20:51:17.931Z,38.87
2019-01-21T20:53:46.363Z,38.33
2019-01-21T20:56:14.836Z,38.10
2019-01-21T20:58:43.262Z,37.53
2019-01-21T21:01:11.726Z,40.40
2019-01-21T21:03:40.171Z,38.67
2019-01-21T21:06:08.951Z,37.40
2019-01-21T21:08:37.442Z,35.87
2019-01-21T21:11:05.872Z,37.07
2019-01-21T21:13:34.364Z,38.37
2019-01-21T21:16:02.779Z,39.10
2019-01-21T21:18:35.608Z,38.70
2019-01-21T21:21:04.087Z,38.33
2019-01-21T21:23:32.524Z,38.37
2019-01-21T21:26:00.927Z,38.53
2019-01-21T21:28:31.268Z,38.27
2019-01-21T21:30:59.726Z,38.40
2019-01-21T21:33:28.231Z,39.03
2019-01-21T21:35:56.715Z,37.77
2019-01-21T21:38:25.128Z,39.53
2019-01-21T21:40:53.562Z,37.60
2019-01-21T21:43:22.328Z,38.00
2019-01-21T21:45:50.864Z,39.60
2019-01-21T21:48:19.459Z,37.40
2019-01-21T21:50:49.640Z,37.43
2019-01-21T21:53:18.204Z,36.30
2019-01-21T21:55:50.920Z,36.37
2019-01-21T21:58:19.345Z,35.87
2019-01-21T22:00:47.839Z,37.73
2019-01-21T22:03:16.331Z,35.07
2019-01-21T22:05:44.760Z,37.67
2019-01-21T22:08:13.168Z,38.07
2019-01-21T22:10:41.583Z,34.53
2019-01-21T22:13:10.004Z,35.87
2019-01-21T22:15:38.424Z,35.37
2019-01-21T22:18:06.843Z,35.93
2019-01-21T22:20:35.402Z,36.73
2019-01-21T22:23:04.160Z,35.37
2019-01-21T22:25:32.572Z,37.23
2019-01-21T22:28:00.987Z,38.00
2019-01-21T22:30:29.563Z,35.60
2019-01-21T22:32:58.033Z,35.70
2019-01-21T22:35:26.542Z,43.13
2019-01-21T22:37:54.959Z,36.60
2019-01-21T22:40:23.480Z,37.93
2019-01-21T22:42:51.933Z,38.63
2019-01-21T22:45:20.888Z,37.53
2019-01-21T22:47:50.695Z,39.33
2019-01-21T22:50:19.816Z,35.90
2019-01-21T22:52:48.300Z,37.80
2019-01-21T22:55:17.252Z,35.03
2019-01-21T22:57:45.673Z,37.57
2019-01-21T23:00:22.932Z,37.50
2019-01-21T23:02:51.364Z,37.77
2019-01-21T23:05:19.911Z,35.90
2019-01-21T23:07:48.323Z,36.90
2019-01-21T23:10:16.858Z,37.67
2019-01-21T23:12:45.503Z,38.80
2019-01-21T23:15:14.045Z,37.20
2019-01-21T23:17:42.539Z,41.07
2019-01-21T23:20:11.291Z,42.53
2019-01-21T23:22:39.712Z,43.27
2019-01-21T23:25:08.272Z,41.93
2019-01-21T23:27:37.068Z,42.10
2019-01-21T23:30:17.040Z,41.63
2019-01-21T23:32:45.534Z,42.57
2019-01-21T23:35:14.187Z,43.60
2019-01-21T23:37:42.610Z,41.57
2019-01-21T23:40:12.128Z,40.57
2019-01-21T23:42:40.549Z,40.17
2019-01-21T23:45:10.506Z,40.63
2019-01-21T23:47:38.990Z,39.17
2019-01-21T23:50:13.135Z,40.27
2019-01-21T23:52:41.910Z,37.97
2019-01-21T23:55:11.860Z,37.70
2019-01-21T23:57:40.356Z,36.97
